Time;durP1;ratioP1;P1;durP2;ratioP2;P2;SDS_P1;SDS_P2;PMS_P1;PMS_P2;Temp;Humidity;BMP_temperature;BMP_pressure;BME280_temperature;BME280_humidity;BME280_pressure;Samples;Min_cycle;Max_cycle;Signal;HPM_P1;HPM_P2
2023/08/10 00:00:56;;;;;;;3.95;1.58;;;;;;;21.34;45.44;95255.00;5051747;28;20064;-80
2023/08/10 00:03:21;;;;;;;1.85;1.25;;;;;;;21.20;45.49;95219.50;5053435;28;20184;-80
2023/08/10 00:05:46;;;;;;;2.80;1.48;;;;;;;21.48;45.60;95260.81;5052759;28;20045;-80
2023/08/10 00:08:12;;;;;;;1.83;1.17;;;;;;;21.27;45.81;95237.81;5052434;28;20136;-81
2023/08/10 00:10:38;;;;;;;4.80;1.38;;;;;;;21.36;45.70;95247.31;5052971;28;20053;-80
2023/08/10 00:13:04;;;;;;;4.22;1.30;;;;;;;20.93;45.70;95203.97;5054315;28;20048;-80
2023/08/10 00:15:31;;;;;;;6.35;1.27;;;;;;;21.17;45.65;95231.75;5052964;28;20602;-80
2023/08/10 00:17:56;;;;;;;3.17;1.23;;;;;;;20.80;45.97;95176.25;5052058;28;20493;-80
2023/08/10 00:20:22;;;;;;;6.05;1.30;;;;;;;20.92;46.17;95195.09;5052261;28;20115;-80
2023/08/10 00:22:47;;;;;;;3.30;1.40;;;;;;;21.04;45.94;95203.19;5052683;28;20106;-80
2023/08/10 00:25:13;;;;;;;2.10;1.38;;;;;;;21.42;45.89;95248.69;5052195;28;20029;-80
2023/08/10 00:27:38;;;;;;;1.80;1.00;;;;;;;21.07;46.09;95201.72;5054325;28;20479;-80
2023/08/10 00:30:05;;;;;;;3.40;1.67;;;;;;;21.27;45.90;95224.31;5052684;28;20036;-80
2023/08/10 00:32:31;;;;;;;1.85;1.27;;;;;;;20.92;46.18;95172.75;5052854;28;20491;-80
2023/08/10 00:34:57;;;;;;;5.43;1.38;;;;;;;20.93;46.48;95185.91;5052946;28;20028;-80
2023/08/10 00:37:23;;;;;;;1.90;1.20;;;;;;;21.19;46.21;95207.13;5053852;28;20036;-80
2023/08/10 00:39:48;;;;;;;1.63;1.25;;;;;;;21.33;46.00;95228.34;5052250;28;20017;-80
2023/08/10 00:42:14;;;;;;;1.50;1.10;;;;;;;21.55;45.95;95238.66;5052529;28;20041;-80
2023/08/10 00:44:39;;;;;;;4.13;1.08;;;;;;;21.12;45.75;95194.19;5050700;28;20029;-80
2023/08/10 00:47:06;;;;;;;3.55;1.35;;;;;;;21.28;46.27;95210.50;5052304;28;20111;-80
2023/08/10 00:49:33;;;;;;;2.95;1.30;;;;;;;21.45;45.88;95244.50;5050423;28;20062;-80
2023/08/10 00:51:59;;;;;;;4.15;1.30;;;;;;;21.47;45.70;95226.06;5050525;28;20408;-80
2023/08/10 00:54:24;;;;;;;1.90;1.40;;;;;;;21.02;45.78;95148.03;5050327;28;20029;-80
2023/08/10 00:56:50;;;;;;;2.08;1.42;;;;;;;21.42;45.67;95197.44;5049984;28;20033;-80
2023/08/10 00:59:16;;;;;;;7.65;1.30;;;;;;;21.35;45.97;95223.41;5050381;28;20508;-80
2023/08/10 01:01:43;;;;;;;2.08;0.90;;;;;;;20.94;46.22;95157.81;5049878;28;20126;-80
2023/08/10 01:04:09;;;;;;;2.65;1.15;;;;;;;21.40;45.69;95220.47;5049973;28;20086;-80
2023/08/10 01:06:48;;;;;;;3.05;1.13;;;;;;;21.22;46.21;95217.22;5051166;28;20479;-80
2023/08/10 01:09:26;;;;;;;2.47;0.90;;;;;;;20.86;46.53;95171.41;5051290;28;20060;-80
2023/08/10 01:12:30;;;;;;;2.13;1.00;;;;;;;21.16;46.70;95232.88;5050295;28;20073;-81
2023/08/10 01:15:15;;;;;;;1.52;0.98;;;;;;;20.91;46.87;95212.41;5050274;28;20135;-82
2023/08/10 01:17:51;;;;;;;2.45;1.05;;;;;;;20.94;46.76;95230.59;5050963;28;20025;-81
2023/08/10 01:20:19;;;;;;;2.97;1.20;;;;;;;21.05;46.52;95214.78;5051904;28;20123;-81
2023/08/10 01:23:04;;;;;;;2.33;0.95;;;;;;;20.96;46.70;95198.72;5050105;28;20423;-81
2023/08/10 01:25:30;;;;;;;4.15;1.38;;;;;;;20.80;46.87;95197.81;5050630;28;20537;-81
2023/08/10 01:27:56;;;;;;;4.07;1.05;;;;;;;20.92;46.93;95232.06;5050292;28;20036;-81
2023/08/10 01:30:22;;;;;;;1.55;1.25;;;;;;;20.94;46.82;95209.03;5050155;28;20098;-81
2023/08/10 01:32:50;;;;;;;3.92;1.35;;;;;;;20.95;46.93;95217.91;5051888;28;20033;-81
2023/08/10 01:35:16;;;;;;;3.10;1.08;;;;;;;20.83;46.83;95186.34;5051946;28;20411;-81
2023/08/10 01:37:41;;;;;;;5.38;1.10;;;;;;;20.96;46.89;95187.16;5051632;28;20044;-81
2023/08/10 01:40:12;;;;;;;3.38;1.60;;;;;;;20.99;46.79;95195.31;5055704;28;20033;-81
2023/08/10 01:42:38;;;;;;;;;;;;;;;21.08;47.26;95225.66;5054119;28;20025;-81
2023/08/10 01:45:05;;;;;;;2.85;1.23;;;;;;;20.78;47.57;95198.16;5053995;28;19935;-81
2023/08/10 01:47:51;;;;;;;2.20;1.17;;;;;;;20.94;47.78;95217.13;5054161;28;20040;-82
2023/08/10 01:50:19;;;;;;;2.45;1.20;;;;;;;20.66;47.86;95192.00;5055063;28;20029;-81
2023/08/10 01:52:51;;;;;;;1.83;1.10;;;;;;;20.67;47.80;95186.22;5053850;28;20047;-80
2023/08/10 01:55:18;;;;;;;2.63;1.00;;;;;;;20.68;47.48;95176.25;5054586;28;20399;-80
2023/08/10 01:57:44;;;;;;;2.00;1.10;;;;;;;20.89;47.78;95217.38;5053071;28;20047;-80
2023/08/10 02:00:12;;;;;;;5.90;1.67;;;;;;;20.51;48.23;95179.97;5053142;28;20094;-80
2023/08/10 02:02:38;;;;;;;3.03;1.40;;;;;;;20.96;48.14;95235.66;5055520;28;20047;-79
2023/08/10 02:05:04;;;;;;;2.17;1.20;;;;;;;20.59;48.18;95180.97;5054311;28;20025;-80
2023/08/10 02:07:29;;;;;;;3.88;1.38;;;;;;;20.39;47.82;95145.72;5053707;28;20060;-80
2023/08/10 02:09:55;;;;;;;7.82;1.33;;;;;;;20.78;48.03;95200.84;5055417;28;20427;-79
2023/08/10 02:12:20;;;;;;;1.60;1.33;;;;;;;20.66;48.19;95194.69;5054255;28;20033;-80
2023/08/10 02:14:46;;;;;;;2.47;1.10;;;;;;;20.36;48.42;95175.25;5053613;28;20079;-80
2023/08/10 02:17:11;;;;;;;3.72;1.10;;;;;;;20.82;48.14;95243.31;5054675;28;20086;-79
2023/08/10 02:19:37;;;;;;;2.60;1.20;;;;;;;20.74;48.03;95229.59;5053965;28;20040;-80
2023/08/10 02:22:03;;;;;;;2.42;1.10;;;;;;;20.83;48.07;95242.94;5053883;28;20051;-81
2023/08/10 02:24:29;;;;;;;2.40;1.30;;;;;;;20.61;47.86;95211.84;5052769;28;20497;-81
2023/08/10 02:26:55;;;;;;;1.52;1.30;;;;;;;20.74;47.79;95235.00;5055240;28;20048;-81
2023/08/10 02:29:20;;;;;;;4.70;1.30;;;;;;;20.95;47.43;95251.06;5052923;28;20416;-81
2023/08/10 02:31:47;;;;;;;2.17;1.25;;;;;;;20.95;47.44;95263.75;5052513;28;20139;-81
2023/08/10 02:34:12;;;;;;;3.33;1.38;;;;;;;20.19;47.28;95149.25;5054126;28;20130;-81
2023/08/10 02:36:38;;;;;;;4.18;1.08;;;;;;;20.60;47.41;95222.94;5054526;28;20068;-81
2023/08/10 02:39:05;;;;;;;6.25;1.38;;;;;;;20.94;47.30;95267.56;5052847;28;20044;-81
2023/08/10 02:41:31;;;;;;;3.33;1.13;;;;;;;20.88;49.77;95277.00;5054037;28;20039;-81
2023/08/10 02:43:56;;;;;;;5.15;1.52;;;;;;;20.94;53.30;95284.53;5052762;28;20570;-81
2023/08/10 02:46:22;;;;;;;6.82;1.75;;;;;;;20.85;56.26;95269.56;5053251;28;20039;-81
2023/08/10 02:48:47;;;;;;;21.45;2.92;;;;;;;20.92;57.52;95294.06;5052366;28;20353;-81
2023/08/10 02:51:13;;;;;;;10.45;2.00;;;;;;;20.93;57.45;95320.69;5054156;28;20040;-82
2023/08/10 02:53:38;;;;;;;23.15;4.20;;;;;;;20.91;61.63;95330.22;5053056;28;20029;-82
2023/08/10 02:56:03;;;;;;;8.88;3.22;;;;;;;20.69;62.44;95321.44;5054056;28;20116;-82
2023/08/10 02:58:29;;;;;;;10.48;3.05;;;;;;;20.62;66.27;95342.75;5052791;28;20037;-82
2023/08/10 03:00:55;;;;;;;17.15;3.22;;;;;;;20.30;66.84;95324.66;5052645;28;20071;-82
2023/08/10 03:03:21;;;;;;;10.75;2.17;;;;;;;20.01;64.72;95329.03;5057620;28;20048;-81
2023/08/10 03:05:47;;;;;;;10.05;2.58;;;;;;;19.60;66.61;95294.06;5056307;28;20021;-81
2023/08/10 03:08:12;;;;;;;13.10;3.40;;;;;;;19.59;70.85;95295.16;5059649;28;20045;-81
2023/08/10 03:10:38;;;;;;;14.43;3.75;;;;;;;19.49;71.08;95300.91;5067847;28;20085;-81
2023/08/10 03:13:04;;;;;;;16.95;3.83;;;;;;;19.42;70.35;95322.13;5061625;28;20039;-81
2023/08/10 03:15:30;;;;;;;14.15;3.85;;;;;;;18.79;72.28;95292.38;5057316;28;20025;-81
2023/08/10 03:17:56;;;;;;;11.95;3.08;;;;;;;18.33;72.61;95271.66;5061115;28;20518;-81
2023/08/10 03:20:21;;;;;;;9.82;3.25;;;;;;;18.73;75.17;95358.16;5058682;28;20029;-80
2023/08/10 03:22:47;;;;;;;13.63;3.00;;;;;;;18.23;74.11;95322.22;5061631;28;20025;-81
2023/08/10 03:25:14;;;;;;;6.25;2.40;;;;;;;18.06;75.25;95325.69;5061275;28;20276;-81
2023/08/10 03:27:40;;;;;;;8.57;2.17;;;;;;;18.17;76.23;95356.47;5057445;28;20136;-80
2023/08/10 03:30:06;;;;;;;7.38;2.40;;;;;;;18.07;76.42;95351.44;5055929;28;20104;-81
2023/08/10 03:32:31;;;;;;;10.00;2.72;;;;;;;18.21;78.41;95344.00;5055187;28;20036;-83
2023/08/10 03:34:57;;;;;;;5.72;2.50;;;;;;;17.70;78.60;95297.28;5051615;28;20068;-83
2023/08/10 03:37:22;;;;;;;3.72;2.10;;;;;;;17.91;78.59;95326.97;5053137;28;20029;-83
2023/08/10 03:39:48;;;;;;;6.47;2.55;;;;;;;18.03;79.43;95320.97;5053254;28;20037;-83
2023/08/10 03:42:13;;;;;;;3.15;2.10;;;;;;;17.41;79.69;95205.91;5051101;28;20098;-83
2023/08/10 03:44:38;;;;;;;7.55;2.38;;;;;;;17.77;79.87;95266.53;5051475;28;20044;-83
2023/08/10 03:47:04;;;;;;;6.00;2.40;;;;;;;17.22;78.22;95192.06;5053487;28;20040;-82
2023/08/10 03:49:30;;;;;;;5.72;3.10;;;;;;;18.20;77.95;95345.09;5053232;28;20029;-83
2023/08/10 03:51:56;;;;;;;4.80;2.10;;;;;;;18.00;77.32;95341.16;5051294;28;20463;-83
2023/08/10 03:54:21;;;;;;;6.53;2.25;;;;;;;17.38;77.23;95270.91;5051229;28;20032;-83
2023/08/10 03:56:47;;;;;;;4.72;2.28;;;;;;;17.18;77.52;95236.66;5051315;28;20507;-83
2023/08/10 03:59:13;;;;;;;5.18;2.58;;;;;;;17.83;74.54;95337.69;5051684;28;20511;-82
2023/08/10 04:01:39;;;;;;;10.23;3.13;;;;;;;17.58;76.95;95294.41;5050806;28;20036;-82
2023/08/10 04:04:04;;;;;;;5.50;2.83;;;;;;;17.74;76.94;95335.00;5052197;28;20037;-82
2023/08/10 04:06:30;;;;;;;6.95;2.80;;;;;;;17.47;77.51;95386.22;5053394;28;20086;-82
2023/08/10 04:08:55;;;;;;;13.60;3.25;;;;;;;17.31;77.54;95365.19;5051687;28;20527;-82
2023/08/10 04:11:21;;;;;;;5.13;3.13;;;;;;;17.48;77.76;95417.25;5052318;28;20041;-81
2023/08/10 04:13:46;;;;;;;8.23;2.95;;;;;;;17.60;78.92;95407.53;5054148;28;20051;-81
2023/08/10 04:16:12;;;;;;;6.20;2.63;;;;;;;17.44;79.17;95343.91;5051940;28;20107;-81
2023/08/10 04:18:39;;;;;;;6.50;3.22;;;;;;;17.66;80.39;95360.72;5052549;28;20061;-81
2023/08/10 04:21:05;;;;;;;7.07;3.58;;;;;;;17.83;81.86;95357.25;5054817;28;20037;-81
2023/08/10 04:23:31;;;;;;;12.00;3.10;;;;;;;18.08;81.04;95383.31;5053438;28;20040;-81
2023/08/10 04:25:56;;;;;;;8.88;3.10;;;;;;;18.15;81.07;95384.75;5055009;28;20029;-81
2023/08/10 04:28:22;;;;;;;7.13;2.80;;;;;;;17.26;80.92;95246.59;5054468;28;20471;-81
2023/08/10 04:30:48;;;;;;;9.93;3.10;;;;;;;18.22;78.59;95412.69;5053389;28;20037;-82
2023/08/10 04:33:13;;;;;;;8.57;4.65;;;;;;;17.92;79.16;95359.97;5053714;28;20105;-82
2023/08/10 04:35:39;;;;;;;7.97;3.60;;;;;;;17.71;77.11;95389.25;5054307;28;20068;-81
2023/08/10 04:38:04;;;;;;;12.00;4.00;;;;;;;17.58;78.75;95447.28;5056008;28;20033;-81
2023/08/10 04:40:30;;;;;;;14.07;4.85;;;;;;;17.35;80.66;95424.31;5055342;28;20047;-81
2023/08/10 04:42:57;;;;;;;10.15;4.40;;;;;;;17.12;81.18;95420.13;5053610;28;20423;-82
2023/08/10 04:45:23;;;;;;;9.68;3.72;;;;;;;17.10;81.45;95431.13;5052033;28;20029;-83
2023/08/10 04:47:48;;;;;;;8.20;3.58;;;;;;;17.20;82.36;95456.88;5051117;28;20086;-83
2023/08/10 04:50:14;;;;;;;5.60;3.45;;;;;;;16.81;81.78;95420.13;5050450;28;20087;-82
2023/08/10 04:52:40;;;;;;;16.15;4.45;;;;;;;17.06;82.80;95445.47;5050135;28;20609;-82
2023/08/10 04:55:06;;;;;;;9.05;4.50;;;;;;;17.14;83.90;95439.38;5051825;28;20407;-83
2023/08/10 04:57:32;;;;;;;8.48;4.43;;;;;;;17.05;83.27;95436.63;5052703;28;20033;-82
2023/08/10 04:59:57;;;;;;;13.50;5.28;;;;;;;16.85;83.69;95405.81;5050773;28;20415;-82
2023/08/10 05:02:23;;;;;;;13.43;4.60;;;;;;;17.01;83.27;95421.50;5050623;28;20036;-82
2023/08/10 05:04:48;;;;;;;11.13;4.90;;;;;;;17.30;84.49;95429.81;5050599;28;20037;-82
2023/08/10 05:07:14;;;;;;;14.10;5.28;;;;;;;17.20;85.26;95404.06;5051818;28;20037;-82
2023/08/10 05:09:39;;;;;;;17.52;5.10;;;;;;;17.31;85.03;95432.19;5050639;28;20103;-82
2023/08/10 05:12:05;;;;;;;12.95;5.03;;;;;;;16.83;85.42;95385.78;5052333;28;20364;-82
2023/08/10 05:14:30;;;;;;;10.65;4.25;;;;;;;16.76;85.98;95364.00;5056095;28;20118;-83
2023/08/10 05:16:56;;;;;;;11.85;5.65;;;;;;;17.31;86.33;95418.81;5054412;28;20048;-82
2023/08/10 05:19:21;;;;;;;17.83;5.28;;;;;;;17.55;87.75;95431.00;5055955;28;20048;-82
2023/08/10 05:21:47;;;;;;;8.18;4.75;;;;;;;17.26;86.92;95372.56;5055133;28;20041;-83
2023/08/10 05:24:12;;;;;;;24.17;10.73;;;;;;;17.46;85.29;95404.19;5054430;28;20456;-83
2023/08/10 05:26:37;;;;;;;42.50;22.08;;;;;;;17.59;86.11;95414.00;5053507;28;20516;-83
2023/08/10 05:29:03;;;;;;;15.07;7.15;;;;;;;17.53;84.93;95393.00;5053998;28;20029;-83
2023/08/10 05:31:29;;;;;;;13.73;4.85;;;;;;;17.60;85.80;95383.41;5054944;28;20526;-83
2023/08/10 05:33:54;;;;;;;8.88;4.90;;;;;;;17.40;85.21;95367.88;5055037;28;20050;-85
2023/08/10 05:36:20;;;;;;;13.07;5.40;;;;;;;17.00;86.09;95304.72;5056029;28;20048;-82
2023/08/10 05:38:45;;;;;;;10.85;5.20;;;;;;;17.37;86.48;95344.38;5054745;28;20044;-82
2023/08/10 05:41:12;;;;;;;10.85;5.40;;;;;;;17.75;84.50;95409.00;5056471;28;20107;-83
2023/08/10 05:43:37;;;;;;;12.25;4.43;;;;;;;17.36;85.47;95346.28;5054190;28;20036;-82
2023/08/10 05:46:03;;;;;;;11.10;4.32;;;;;;;17.72;84.94;95404.25;5054676;28;20036;-83
2023/08/10 05:48:28;;;;;;;9.48;4.90;;;;;;;17.60;85.76;95372.66;5054040;28;20043;-83
2023/08/10 05:50:54;;;;;;;8.85;4.30;;;;;;;17.91;85.47;95404.78;5054904;28;20123;-83
2023/08/10 05:53:20;;;;;;;10.60;4.68;;;;;;;17.65;85.16;95342.25;5064441;28;20056;-81
2023/08/10 05:55:45;;;;;;;13.75;5.07;;;;;;;17.96;85.53;95388.53;5064734;28;20051;-81
2023/08/10 05:58:11;;;;;;;13.40;4.90;;;;;;;17.73;85.36;95352.19;5066101;28;20044;-81
2023/08/10 06:00:36;;;;;;;11.15;4.90;;;;;;;17.39;85.04;95336.03;5064419;28;20580;-81
2023/08/10 06:03:03;;;;;;;12.65;5.10;;;;;;;17.35;83.99;95343.91;5065717;28;20590;-81
2023/08/10 06:05:32;;;;;;;7.05;4.30;;;;;;;17.39;84.94;95363.63;5064193;28;20515;-81
2023/08/10 06:07:58;;;;;;;13.02;5.45;;;;;;;17.70;84.58;95422.53;5062765;28;20684;-82
2023/08/10 06:10:24;;;;;;;19.88;6.78;;;;;;;17.02;85.57;95300.59;5064459;28;20044;-82
2023/08/10 06:12:50;;;;;;;10.60;4.50;;;;;;;17.28;84.36;95316.75;5065724;28;20037;-81
2023/08/10 06:15:15;;;;;;;6.05;3.72;;;;;;;17.68;82.34;95384.53;5065970;28;20044;-81
2023/08/10 06:17:41;;;;;;;9.77;4.28;;;;;;;17.41;82.81;95345.31;5063749;28;20047;-81
2023/08/10 06:20:09;;;;;;;6.22;3.80;;;;;;;17.76;84.25;95415.16;5058718;28;20029;-81
2023/08/10 06:22:36;;;;;;;11.10;4.00;;;;;;;17.47;84.04;95359.41;5058859;28;20036;-81
2023/08/10 06:25:01;;;;;;;8.25;4.13;;;;;;;17.49;83.11;95360.63;5057756;28;20029;-81
2023/08/10 06:27:27;;;;;;;6.40;3.30;;;;;;;17.82;83.77;95412.03;5060417;28;20033;-81
2023/08/10 06:29:52;;;;;;;8.82;3.70;;;;;;;17.85;83.29;95410.63;5060014;28;20123;-81
2023/08/10 06:32:18;;;;;;;9.38;4.00;;;;;;;17.80;83.59;95386.59;5057892;28;20071;-82
2023/08/10 06:34:43;;;;;;;12.18;3.80;;;;;;;17.93;83.33;95417.84;5052940;28;20094;-82
2023/08/10 06:37:10;;;;;;;7.80;4.45;;;;;;;17.93;83.49;95405.22;5053832;28;20052;-82
2023/08/10 06:39:35;;;;;;;15.65;6.00;;;;;;;18.17;83.66;95434.31;5053270;28;20040;-82
2023/08/10 06:42:02;;;;;;;13.00;5.60;;;;;;;18.21;84.52;95437.97;5054272;28;20550;-82
2023/08/10 06:44:29;;;;;;;11.88;5.22;;;;;;;18.21;82.70;95439.84;5055763;28;20472;-82
2023/08/10 06:46:54;;;;;;;11.00;4.85;;;;;;;17.96;81.77;95409.97;5053821;28;20036;-82
2023/08/10 06:49:21;;;;;;;11.35;4.30;;;;;;;17.84;81.23;95398.31;5053914;28;20040;-82
2023/08/10 06:51:49;;;;;;;9.90;4.38;;;;;;;17.96;82.74;95401.16;5054363;28;20039;-82
2023/08/10 06:54:14;;;;;;;8.35;4.25;;;;;;;18.06;80.83;95436.53;5055887;28;20386;-82
2023/08/10 06:56:40;;;;;;;9.82;4.25;;;;;;;17.60;80.41;95382.59;5054638;28;20044;-82
2023/08/10 06:59:06;;;;;;;6.55;4.10;;;;;;;18.06;81.09;95444.56;5056140;28;20068;-82
2023/08/10 07:01:32;;;;;;;5.60;3.17;;;;;;;18.07;81.55;95456.91;5055950;28;20037;-81
2023/08/10 07:03:58;;;;;;;5.03;3.03;;;;;;;18.03;80.75;95457.81;5057096;28;20041;-82
2023/08/10 07:06:23;;;;;;;6.35;3.40;;;;;;;17.59;82.25;95378.34;5057115;28;20029;-82
2023/08/10 07:08:52;;;;;;;5.65;3.53;;;;;;;18.04;82.04;95435.25;5056533;28;20440;-82
2023/08/10 07:11:19;;;;;;;8.20;3.17;;;;;;;18.36;83.23;95461.66;5056446;28;20097;-82
2023/08/10 07:13:46;;;;;;;11.93;5.97;;;;;;;17.86;82.72;95370.03;5054142;28;20120;-82
2023/08/10 07:16:11;;;;;;;10.20;5.30;;;;;;;18.42;82.53;95467.66;5053097;28;20033;-82
2023/08/10 07:18:37;;;;;;;6.60;3.75;;;;;;;18.24;82.94;95413.16;5053359;28;20388;-82
2023/08/10 07:21:02;;;;;;;4.88;3.00;;;;;;;18.04;80.01;95382.38;5052760;28;20033;-82
2023/08/10 07:23:28;;;;;;;6.82;2.70;;;;;;;18.70;80.80;95466.25;5054398;28;20388;-81
2023/08/10 07:25:54;;;;;;;4.00;2.70;;;;;;;18.32;79.18;95401.63;5054276;28;20450;-82
2023/08/10 07:28:23;;;;;;;5.07;2.60;;;;;;;18.75;79.77;95447.28;5054695;28;20032;-81
2023/08/10 07:30:50;;;;;;;8.43;3.50;;;;;;;19.00;80.80;95467.16;5052509;28;20053;-81
2023/08/10 07:33:16;;;;;;;5.07;3.17;;;;;;;19.01;80.25;95473.31;5052778;28;20048;-81
2023/08/10 07:35:41;;;;;;;5.45;2.65;;;;;;;18.78;80.58;95424.34;5053062;28;20531;-81
2023/08/10 07:38:07;;;;;;;5.07;3.30;;;;;;;18.52;80.19;95379.50;5053521;28;20087;-81
2023/08/10 07:40:32;;;;;;;6.93;3.70;;;;;;;19.09;79.81;95446.41;5052673;28;20033;-81
2023/08/10 07:42:58;;;;;;;4.40;2.63;;;;;;;19.26;77.55;95469.78;5053034;28;20063;-82
2023/08/10 07:45:23;;;;;;;4.53;2.92;;;;;;;19.16;78.27;95430.59;5052278;28;20076;-81
2023/08/10 07:47:49;;;;;;;11.40;3.60;;;;;;;19.46;78.96;95473.66;5052469;28;20032;-81
2023/08/10 07:50:14;;;;;;;5.40;3.53;;;;;;;19.18;77.10;95444.50;5053918;28;20025;-81
2023/08/10 07:52:40;;;;;;;13.55;6.63;;;;;;;19.27;76.44;95449.84;5052749;28;20426;-81
2023/08/10 07:55:06;;;;;;;8.40;4.10;;;;;;;19.39;77.53;95458.03;5053376;28;20518;-81
2023/08/10 07:57:31;;;;;;;6.05;4.07;;;;;;;19.44;78.28;95451.69;5052870;28;20037;-81
2023/08/10 08:00:00;;;;;;;10.15;3.05;;;;;;;19.67;75.94;95471.88;5053688;28;20071;-81
2023/08/10 08:02:28;;;;;;;4.22;2.60;;;;;;;19.57;75.09;95474.94;5051900;28;20044;-81
2023/08/10 08:04:53;;;;;;;5.00;2.90;;;;;;;19.58;74.88;95444.22;5052021;28;20025;-81
2023/08/10 08:07:19;;;;;;;4.90;3.03;;;;;;;19.70;75.18;95444.31;5051509;28;20417;-81
2023/08/10 08:09:44;;;;;;;6.97;2.92;;;;;;;19.79;76.05;95438.88;5051925;28;20495;-81
2023/08/10 08:12:10;;;;;;;5.50;2.72;;;;;;;20.11;74.97;95467.84;5051969;28;20112;-81
2023/08/10 08:14:35;;;;;;;11.80;3.33;;;;;;;19.79;73.10;95414.66;5051112;28;20073;-81
2023/08/10 08:17:01;;;;;;;13.95;3.47;;;;;;;19.64;73.53;95389.91;5051088;28;20423;-80
2023/08/10 08:19:27;;;;;;;6.47;3.20;;;;;;;20.20;73.77;95444.34;5051347;28;20124;-80
2023/08/10 08:21:52;;;;;;;7.53;2.05;;;;;;;20.18;72.54;95440.41;5051203;28;20375;-80
2023/08/10 08:24:18;;;;;;;12.20;2.95;;;;;;;20.22;73.99;95460.94;5050932;28;20087;-81
2023/08/10 08:26:43;;;;;;;16.45;3.83;;;;;;;20.08;71.14;95430.78;5033957;28;20033;-80
2023/08/10 08:29:09;;;;;;;7.00;2.78;;;;;;;20.16;70.63;95448.00;5051900;28;20071;-80
2023/08/10 08:31:35;;;;;;;4.97;2.55;;;;;;;20.29;73.33;95463.16;5050884;28;20434;-81
2023/08/10 08:34:01;;;;;;;5.35;2.72;;;;;;;20.10;71.60;95466.25;5051002;28;20056;-80
2023/08/10 08:36:26;;;;;;;5.25;2.92;;;;;;;20.22;72.34;95450.16;5051130;28;20037;-80
2023/08/10 08:38:52;;;;;;;4.80;2.53;;;;;;;20.55;73.32;95488.00;5052341;28;20055;-81
2023/08/10 08:41:20;;;;;;;4.95;2.88;;;;;;;20.74;72.38;95482.94;5052319;28;20040;-80
2023/08/10 08:43:48;;;;;;;7.78;3.28;;;;;;;20.71;69.94;95470.13;5052672;28;20127;-80
2023/08/10 08:46:16;;;;;;;4.25;2.30;;;;;;;20.47;70.07;95401.84;5052909;28;20037;-80
2023/08/10 08:48:42;;;;;;;5.88;2.45;;;;;;;20.80;69.73;95457.34;5051079;28;20032;-80
2023/08/10 08:51:08;;;;;;;3.70;2.28;;;;;;;21.03;68.71;95478.56;5052908;28;20033;-81
2023/08/10 08:53:33;;;;;;;5.45;2.35;;;;;;;21.06;68.46;95467.88;5054043;28;20415;-81
2023/08/10 08:55:59;;;;;;;4.93;2.35;;;;;;;21.12;66.92;95480.06;5055039;28;20124;-80
2023/08/10 08:58:24;;;;;;;6.20;2.40;;;;;;;21.10;69.10;95449.13;5058513;28;20092;-80
2023/08/10 09:00:53;;;;;;;5.50;2.50;;;;;;;21.43;69.58;95484.19;5054684;28;20033;-80
2023/08/10 09:03:23;;;;;;;4.47;2.03;;;;;;;21.31;69.52;95457.97;5053299;28;20068;-80
2023/08/10 09:05:49;;;;;;;6.80;2.80;;;;;;;21.40;68.05;95444.38;5052777;28;20036;-81
2023/08/10 09:08:16;;;;;;;7.78;3.00;;;;;;;21.73;67.68;95477.50;5052374;28;20112;-81
2023/08/10 09:10:43;;;;;;;4.18;2.25;;;;;;;21.34;63.22;95488.91;5056207;28;20036;-80
2023/08/10 09:13:16;;;;;;;4.22;2.20;;;;;;;21.35;64.66;95423.81;5055440;28;20582;-81
2023/08/10 09:15:42;;;;;;;2.42;1.88;;;;;;;21.85;62.81;95479.38;5056253;28;20037;-80
2023/08/10 09:18:07;;;;;;;2.67;2.10;;;;;;;21.44;63.32;95439.88;5053663;28;20099;-80
2023/08/10 09:20:33;;;;;;;4.85;2.42;;;;;;;21.66;63.12;95468.38;5053372;28;20043;-80
2023/08/10 09:23:02;;;;;;;6.80;2.97;;;;;;;21.85;62.29;95487.50;5053031;28;20419;-80
2023/08/10 09:25:39;;;;;;;8.85;2.85;;;;;;;21.88;63.90;95481.44;5053590;28;20029;-80
2023/08/10 09:28:09;;;;;;;4.90;2.25;;;;;;;21.53;60.69;95468.34;5053528;28;20400;-80
2023/08/10 09:30:35;;;;;;;6.97;2.70;;;;;;;21.78;61.38;95479.94;5053698;28;20452;-80
2023/08/10 09:33:00;;;;;;;7.43;2.28;;;;;;;21.34;63.02;95418.75;5055056;28;20043;-81
2023/08/10 09:35:30;;;;;;;4.40;3.10;;;;;;;21.87;62.89;95467.13;5052787;28;20037;-81
2023/08/10 09:38:00;;;;;;;12.05;3.42;;;;;;;21.94;65.13;95458.47;5053421;28;20037;-81
2023/08/10 09:40:26;;;;;;;5.00;2.70;;;;;;;21.98;61.72;95455.91;5053181;28;20104;-80
2023/08/10 09:42:51;;;;;;;3.35;2.63;;;;;;;22.05;62.08;95458.84;5053298;28;20805;-80
2023/08/10 09:45:17;;;;;;;6.53;2.63;;;;;;;21.64;61.50;95370.75;5052625;28;20033;-80
2023/08/10 09:47:43;;;;;;;8.50;2.70;;;;;;;22.34;60.51;95458.56;5052610;28;20052;-80
2023/08/10 09:50:19;;;;;;;5.68;3.13;;;;;;;22.13;57.20;95455.19;5054037;28;20509;-81
2023/08/10 09:52:45;;;;;;;4.72;2.58;;;;;;;22.06;59.99;95417.19;5052352;28;20522;-80
2023/08/10 09:55:11;;;;;;;3.67;2.10;;;;;;;22.17;59.06;95431.81;5053398;28;20033;-80
2023/08/10 09:57:44;;;;;;;3.47;2.05;;;;;;;22.56;58.93;95449.94;5051860;28;20099;-80
2023/08/10 10:00:21;;;;;;;9.88;5.32;;;;;;;22.38;57.22;95423.53;5057056;28;20117;-81
2023/08/10 10:02:47;;;;;;;4.32;2.30;;;;;;;22.49;56.67;95424.63;5054498;28;20041;-81
2023/08/10 10:05:12;;;;;;;5.55;2.30;;;;;;;22.51;55.95;95433.16;5053894;28;20033;-81
2023/08/10 10:07:38;;;;;;;3.15;2.20;;;;;;;22.90;55.97;95454.00;5055617;28;20029;-81
2023/08/10 10:10:08;;;;;;;5.55;2.60;;;;;;;22.92;56.28;95456.38;5053288;28;20055;-82
2023/08/10 10:12:35;;;;;;;5.43;2.63;;;;;;;22.97;57.35;95431.78;5053400;28;20044;-82
2023/08/10 10:15:01;;;;;;;3.85;2.42;;;;;;;23.35;57.51;95461.78;5055161;28;20499;-82
2023/08/10 10:17:26;;;;;;;3.88;2.28;;;;;;;23.03;54.18;95436.59;5054844;28;20036;-82
2023/08/10 10:19:53;;;;;;;8.60;3.17;;;;;;;23.21;54.72;95453.28;5053596;28;20035;-82
2023/08/10 10:22:20;;;;;;;4.40;2.22;;;;;;;23.48;55.27;95446.28;5053138;28;20044;-82
2023/08/10 10:24:47;;;;;;;3.08;2.08;;;;;;;23.49;52.24;95450.56;5055745;28;20079;-82
2023/08/10 10:27:13;;;;;;;6.20;2.45;;;;;;;23.45;53.04;95430.69;5053851;28;20029;-81
2023/08/10 10:29:51;;;;;;;7.50;2.38;;;;;;;23.54;50.93;95423.22;5054788;28;20507;-81
2023/08/10 10:32:21;;;;;;;7.05;2.03;;;;;;;24.03;51.86;95430.97;5054520;28;20029;-81
2023/08/10 10:34:48;;;;;;;3.72;1.95;;;;;;;24.10;50.24;95450.09;5056023;28;20044;-81
2023/08/10 10:37:35;;;;;;;4.47;2.00;;;;;;;24.13;51.23;95431.19;5057091;28;20032;-81
2023/08/10 10:40:18;;;;;;;3.83;2.20;;;;;;;24.39;50.56;95402.72;5056755;28;20069;-81
2023/08/10 10:43:02;;;;;;;2.83;1.58;;;;;;;25.04;49.86;95452.47;5055934;28;20037;-81
2023/08/10 10:45:33;;;;;;;3.85;1.98;;;;;;;25.10;49.12;95451.03;5055741;28;20479;-81
2023/08/10 10:47:58;;;;;;;3.20;2.03;;;;;;;25.08;49.42;95455.28;5057332;28;20528;-81
2023/08/10 10:50:29;;;;;;;3.40;2.08;;;;;;;25.23;49.28;95455.19;5057541;28;20069;-81
2023/08/10 10:53:02;;;;;;;4.47;1.80;;;;;;;24.91;48.77;95413.09;5056228;28;20113;-81
2023/08/10 10:55:34;;;;;;;14.75;2.00;;;;;;;25.00;47.60;95419.09;5056626;28;20063;-81
2023/08/10 10:58:00;;;;;;;5.80;1.35;;;;;;;25.24;46.63;95431.53;5056872;28;20411;-81
2023/08/10 11:00:26;;;;;;;3.72;2.15;;;;;;;25.13;44.17;95447.63;5056575;28;20400;-81
2023/08/10 11:02:52;;;;;;;3.08;2.00;;;;;;;25.30;44.33;95449.09;5056053;28;20043;-81
2023/08/10 11:05:18;;;;;;;2.17;1.42;;;;;;;24.87;45.08;95404.84;5055470;28;20086;-81
2023/08/10 11:07:51;;;;;;;3.65;1.75;;;;;;;24.84;46.44;95405.56;5056556;28;20189;-81
2023/08/10 11:10:19;;;;;;;2.15;1.60;;;;;;;24.85;47.18;95422.63;5054386;28;20465;-81
2023/08/10 11:12:45;;;;;;;2.80;1.45;;;;;;;24.78;46.45;95441.47;5053506;28;20033;-82
2023/08/10 11:15:13;;;;;;;1.23;1.00;;;;;;;24.84;46.02;95445.47;5052510;28;20036;-82
2023/08/10 11:17:41;;;;;;;2.72;1.40;;;;;;;24.85;46.78;95442.41;5052371;28;20484;-82
2023/08/10 11:20:11;;;;;;;5.38;1.65;;;;;;;24.70;45.80;95440.56;5054086;28;20140;-82
2023/08/10 11:22:38;;;;;;;1.42;1.20;;;;;;;24.64;46.01;95414.09;5052933;28;20035;-82
2023/08/10 11:25:13;;;;;;;2.97;1.15;;;;;;;24.86;45.35;95435.06;5052468;28;20029;-82
2023/08/10 11:27:49;;;;;;;5.63;1.17;;;;;;;24.66;45.20;95417.22;5052592;28;20063;-82
2023/08/10 11:30:17;;;;;;;4.57;1.63;;;;;;;24.95;45.26;95439.13;5052139;28;20037;-82